sensor_id;sensor_type;location;lat;lon;timestamp;P1;durP1;ratioP1;P2;durP2;ratioP2
70576;SDS011;58138;43.138;24.702;2023-03-08T00:00:00;22.80;;;11.10;;
70576;SDS011;58138;43.138;24.702;2023-03-08T00:02:26;17.48;;;10.05;;
70576;SDS011;58138;43.138;24.702;2023-03-08T00:04:55;22.23;;;10.70;;
70576;SDS011;58138;43.138;24.702;2023-03-08T00:07:21;15.00;;;8.25;;
70576;SDS011;58138;43.138;24.702;2023-03-08T00:09:47;18.25;;;8.77;;
70576;SDS011;58138;43.138;24.702;2023-03-08T00:12:13;14.43;;;7.90;;
70576;SDS011;58138;43.138;24.702;2023-03-08T00:14:38;15.27;;;8.45;;
70576;SDS011;58138;43.138;24.702;2023-03-08T00:17:04;13.43;;;7.78;;
70576;SDS011;58138;43.138;24.702;2023-03-08T00:19:30;14.55;;;10.13;;
70576;SDS011;58138;43.138;24.702;2023-03-08T00:21:56;15.20;;;7.80;;
70576;SDS011;58138;43.138;24.702;2023-03-08T00:24:21;14.45;;;8.68;;
70576;SDS011;58138;43.138;24.702;2023-03-08T00:26:47;15.13;;;9.27;;
70576;SDS011;58138;43.138;24.702;2023-03-08T00:29:12;16.38;;;9.10;;
70576;SDS011;58138;43.138;24.702;2023-03-08T00:31:38;16.60;;;9.27;;
70576;SDS011;58138;43.138;24.702;2023-03-08T00:34:04;16.20;;;9.32;;
70576;SDS011;58138;43.138;24.702;2023-03-08T00:36:29;16.13;;;9.07;;
70576;SDS011;58138;43.138;24.702;2023-03-08T00:38:55;16.45;;;9.65;;
70576;SDS011;58138;43.138;24.702;2023-03-08T00:41:21;16.27;;;10.02;;
70576;SDS011;58138;43.138;24.702;2023-03-08T00:43:47;13.48;;;8.13;;
70576;SDS011;58138;43.138;24.702;2023-03-08T00:46:13;14.63;;;7.85;;
70576;SDS011;58138;43.138;24.702;2023-03-08T00:48:40;13.18;;;8.70;;
70576;SDS011;58138;43.138;24.702;2023-03-08T00:51:05;22.05;;;8.77;;
70576;SDS011;58138;43.138;24.702;2023-03-08T00:53:31;11.85;;;7.75;;
70576;SDS011;58138;43.138;24.702;2023-03-08T00:55:57;14.90;;;10.07;;
70576;SDS011;58138;43.138;24.702;2023-03-08T00:58:25;20.05;;;8.93;;
70576;SDS011;58138;43.138;24.702;2023-03-08T01:00:51;19.13;;;9.02;;
70576;SDS011;58138;43.138;24.702;2023-03-08T01:03:18;18.95;;;9.70;;
70576;SDS011;58138;43.138;24.702;2023-03-08T01:05:48;12.52;;;8.32;;
70576;SDS011;58138;43.138;24.702;2023-03-08T01:08:15;14.13;;;8.38;;
70576;SDS011;58138;43.138;24.702;2023-03-08T01:10:48;10.85;;;7.10;;
70576;SDS011;58138;43.138;24.702;2023-03-08T01:13:18;17.33;;;7.95;;
70576;SDS011;58138;43.138;24.702;2023-03-08T01:15:44;13.15;;;7.80;;
70576;SDS011;58138;43.138;24.702;2023-03-08T01:18:10;13.00;;;7.68;;
70576;SDS011;58138;43.138;24.702;2023-03-08T01:20:35;15.00;;;7.20;;
70576;SDS011;58138;43.138;24.702;2023-03-08T01:23:01;11.02;;;7.15;;
70576;SDS011;58138;43.138;24.702;2023-03-08T01:25:27;8.98;;;5.03;;
70576;SDS011;58138;43.138;24.702;2023-03-08T01:27:52;10.10;;;5.28;;
70576;SDS011;58138;43.138;24.702;2023-03-08T01:30:18;10.90;;;6.65;;
70576;SDS011;58138;43.138;24.702;2023-03-08T01:32:44;15.85;;;6.13;;
70576;SDS011;58138;43.138;24.702;2023-03-08T01:35:10;16.67;;;4.05;;
70576;SDS011;58138;43.138;24.702;2023-03-08T01:37:37;13.32;;;8.55;;
70576;SDS011;58138;43.138;24.702;2023-03-08T01:40:02;7.53;;;4.30;;
70576;SDS011;58138;43.138;24.702;2023-03-08T01:42:29;15.27;;;8.05;;
70576;SDS011;58138;43.138;24.702;2023-03-08T01:45:00;15.30;;;8.32;;
70576;SDS011;58138;43.138;24.702;2023-03-08T01:47:28;10.43;;;6.90;;
70576;SDS011;58138;43.138;24.702;2023-03-08T01:50:03;13.90;;;8.93;;
70576;SDS011;58138;43.138;24.702;2023-03-08T01:52:32;11.82;;;6.60;;
70576;SDS011;58138;43.138;24.702;2023-03-08T01:55:01;12.20;;;7.20;;
70576;SDS011;58138;43.138;24.702;2023-03-08T01:57:30;13.77;;;7.00;;
70576;SDS011;58138;43.138;24.702;2023-03-08T01:59:58;14.40;;;8.63;;
70576;SDS011;58138;43.138;24.702;2023-03-08T02:02:47;12.07;;;7.38;;
70576;SDS011;58138;43.138;24.702;2023-03-08T02:05:15;14.55;;;7.30;;
70576;SDS011;58138;43.138;24.702;2023-03-08T02:07:41;13.52;;;7.53;;
70576;SDS011;58138;43.138;24.702;2023-03-08T02:10:07;13.40;;;7.88;;
70576;SDS011;58138;43.138;24.702;2023-03-08T02:12:33;13.45;;;8.60;;
70576;SDS011;58138;43.138;24.702;2023-03-08T02:15:00;13.95;;;8.23;;
70576;SDS011;58138;43.138;24.702;2023-03-08T02:17:27;13.55;;;7.28;;
70576;SDS011;58138;43.138;24.702;2023-03-08T02:19:59;11.38;;;6.40;;
70576;SDS011;58138;43.138;24.702;2023-03-08T02:22:30;13.68;;;7.88;;
70576;SDS011;58138;43.138;24.702;2023-03-08T02:24:55;9.40;;;4.65;;
70576;SDS011;58138;43.138;24.702;2023-03-08T02:27:25;13.05;;;7.18;;
70576;SDS011;58138;43.138;24.702;2023-03-08T02:29:51;10.60;;;5.05;;
70576;SDS011;58138;43.138;24.702;2023-03-08T02:32:17;9.60;;;6.20;;
70576;SDS011;58138;43.138;24.702;2023-03-08T02:34:42;7.80;;;4.03;;
70576;SDS011;58138;43.138;24.702;2023-03-08T02:37:08;6.70;;;3.65;;
70576;SDS011;58138;43.138;24.702;2023-03-08T02:39:34;8.35;;;5.20;;
70576;SDS011;58138;43.138;24.702;2023-03-08T02:41:59;4.00;;;2.80;;
70576;SDS011;58138;43.138;24.702;2023-03-08T02:44:25;8.95;;;6.18;;
70576;SDS011;58138;43.138;24.702;2023-03-08T02:46:51;9.57;;;6.20;;
70576;SDS011;58138;43.138;24.702;2023-03-08T02:49:16;10.13;;;6.07;;
70576;SDS011;58138;43.138;24.702;2023-03-08T02:51:42;7.43;;;3.67;;
70576;SDS011;58138;43.138;24.702;2023-03-08T02:54:08;9.10;;;6.10;;
70576;SDS011;58138;43.138;24.702;2023-03-08T02:56:33;10.30;;;5.68;;
70576;SDS011;58138;43.138;24.702;2023-03-08T02:59:01;12.07;;;6.40;;
70576;SDS011;58138;43.138;24.702;2023-03-08T03:01:28;12.10;;;6.90;;
70576;SDS011;58138;43.138;24.702;2023-03-08T03:03:53;17.65;;;7.35;;
70576;SDS011;58138;43.138;24.702;2023-03-08T03:06:20;11.88;;;7.03;;
70576;SDS011;58138;43.138;24.702;2023-03-08T03:08:46;8.40;;;4.53;;
70576;SDS011;58138;43.138;24.702;2023-03-08T03:13:37;5.60;;;2.88;;
70576;SDS011;58138;43.138;24.702;2023-03-08T03:16:10;5.88;;;3.58;;
70576;SDS011;58138;43.138;24.702;2023-03-08T03:18:37;7.80;;;3.78;;
70576;SDS011;58138;43.138;24.702;2023-03-08T03:21:07;11.80;;;6.13;;
70576;SDS011;58138;43.138;24.702;2023-03-08T03:23:34;8.73;;;3.60;;
70576;SDS011;58138;43.138;24.702;2023-03-08T03:26:13;11.48;;;7.00;;
70576;SDS011;58138;43.138;24.702;2023-03-08T03:28:40;14.73;;;7.80;;
70576;SDS011;58138;43.138;24.702;2023-03-08T03:31:07;13.45;;;6.97;;
70576;SDS011;58138;43.138;24.702;2023-03-08T03:33:33;13.43;;;7.78;;
70576;SDS011;58138;43.138;24.702;2023-03-08T03:35:59;14.13;;;8.07;;
70576;SDS011;58138;43.138;24.702;2023-03-08T03:38:26;10.77;;;5.07;;
70576;SDS011;58138;43.138;24.702;2023-03-08T03:40:59;12.45;;;7.57;;
70576;SDS011;58138;43.138;24.702;2023-03-08T03:43:25;13.23;;;7.35;;
70576;SDS011;58138;43.138;24.702;2023-03-08T03:45:55;7.45;;;4.63;;
70576;SDS011;58138;43.138;24.702;2023-03-08T03:48:21;9.73;;;6.47;;
70576;SDS011;58138;43.138;24.702;2023-03-08T03:50:56;13.82;;;5.50;;
70576;SDS011;58138;43.138;24.702;2023-03-08T03:53:23;8.35;;;5.10;;
70576;SDS011;58138;43.138;24.702;2023-03-08T03:55:49;9.50;;;4.88;;
70576;SDS011;58138;43.138;24.702;2023-03-08T03:58:15;5.43;;;3.40;;
70576;SDS011;58138;43.138;24.702;2023-03-08T04:00:41;6.10;;;4.32;;
70576;SDS011;58138;43.138;24.702;2023-03-08T04:03:06;11.63;;;6.43;;
70576;SDS011;58138;43.138;24.702;2023-03-08T04:05:32;11.57;;;6.40;;
70576;SDS011;58138;43.138;24.702;2023-03-08T04:07:57;10.43;;;6.82;;
70576;SDS011;58138;43.138;24.702;2023-03-08T04:10:23;12.00;;;6.95;;
70576;SDS011;58138;43.138;24.702;2023-03-08T04:12:49;12.43;;;6.43;;
70576;SDS011;58138;43.138;24.702;2023-03-08T04:15:15;10.82;;;6.53;;
70576;SDS011;58138;43.138;24.702;2023-03-08T04:17:41;9.88;;;6.03;;
70576;SDS011;58138;43.138;24.702;2023-03-08T04:20:07;14.00;;;7.43;;
70576;SDS011;58138;43.138;24.702;2023-03-08T04:22:32;15.18;;;7.85;;
70576;SDS011;58138;43.138;24.702;2023-03-08T04:24:58;16.73;;;8.80;;
70576;SDS011;58138;43.138;24.702;2023-03-08T04:27:24;9.57;;;6.65;;
70576;SDS011;58138;43.138;24.702;2023-03-08T04:29:49;11.98;;;6.80;;
70576;SDS011;58138;43.138;24.702;2023-03-08T04:32:15;11.85;;;6.80;;
70576;SDS011;58138;43.138;24.702;2023-03-08T04:34:40;15.70;;;6.78;;
70576;SDS011;58138;43.138;24.702;2023-03-08T04:37:07;16.33;;;7.30;;
70576;SDS011;58138;43.138;24.702;2023-03-08T04:39:35;16.23;;;7.65;;
70576;SDS011;58138;43.138;24.702;2023-03-08T04:42:00;16.70;;;6.85;;
70576;SDS011;58138;43.138;24.702;2023-03-08T04:44:26;24.45;;;7.43;;
70576;SDS011;58138;43.138;24.702;2023-03-08T04:46:51;106.32;;;37.15;;
70576;SDS011;58138;43.138;24.702;2023-03-08T04:49:17;49.08;;;20.73;;
70576;SDS011;58138;43.138;24.702;2023-03-08T04:51:43;14.52;;;7.57;;
70576;SDS011;58138;43.138;24.702;2023-03-08T04:54:08;15.05;;;7.07;;
70576;SDS011;58138;43.138;24.702;2023-03-08T04:56:34;16.02;;;9.45;;
70576;SDS011;58138;43.138;24.702;2023-03-08T04:59:00;17.85;;;8.77;;
70576;SDS011;58138;43.138;24.702;2023-03-08T05:01:25;14.63;;;7.65;;
70576;SDS011;58138;43.138;24.702;2023-03-08T05:03:51;16.15;;;8.32;;
70576;SDS011;58138;43.138;24.702;2023-03-08T05:06:17;15.05;;;6.07;;
70576;SDS011;58138;43.138;24.702;2023-03-08T05:08:44;9.35;;;4.55;;
70576;SDS011;58138;43.138;24.702;2023-03-08T05:11:11;19.38;;;6.90;;
70576;SDS011;58138;43.138;24.702;2023-03-08T05:13:42;23.58;;;13.57;;
70576;SDS011;58138;43.138;24.702;2023-03-08T05:16:08;11.32;;;6.80;;
70576;SDS011;58138;43.138;24.702;2023-03-08T05:18:33;15.10;;;6.63;;
70576;SDS011;58138;43.138;24.702;2023-03-08T05:21:00;14.63;;;5.47;;
70576;SDS011;58138;43.138;24.702;2023-03-08T05:23:28;13.40;;;6.60;;
70576;SDS011;58138;43.138;24.702;2023-03-08T05:25:54;10.95;;;6.95;;
70576;SDS011;58138;43.138;24.702;2023-03-08T05:28:21;26.23;;;8.75;;
70576;SDS011;58138;43.138;24.702;2023-03-08T05:30:47;16.27;;;7.68;;
70576;SDS011;58138;43.138;24.702;2023-03-08T05:33:14;16.45;;;6.88;;
70576;SDS011;58138;43.138;24.702;2023-03-08T05:35:40;20.35;;;7.15;;
70576;SDS011;58138;43.138;24.702;2023-03-08T05:38:06;16.00;;;6.82;;
70576;SDS011;58138;43.138;24.702;2023-03-08T05:40:31;32.65;;;9.05;;
70576;SDS011;58138;43.138;24.702;2023-03-08T05:42:57;23.08;;;10.73;;
70576;SDS011;58138;43.138;24.702;2023-03-08T05:45:22;17.85;;;10.38;;
70576;SDS011;58138;43.138;24.702;2023-03-08T05:47:48;31.13;;;14.18;;
70576;SDS011;58138;43.138;24.702;2023-03-08T05:50:13;34.25;;;14.48;;
70576;SDS011;58138;43.138;24.702;2023-03-08T05:52:39;36.95;;;13.75;;
70576;SDS011;58138;43.138;24.702;2023-03-08T05:55:06;22.58;;;11.30;;
70576;SDS011;58138;43.138;24.702;2023-03-08T05:57:32;22.30;;;11.45;;
70576;SDS011;58138;43.138;24.702;2023-03-08T05:59:57;60.28;;;11.15;;
70576;SDS011;58138;43.138;24.702;2023-03-08T06:02:23;26.35;;;8.95;;
70576;SDS011;58138;43.138;24.702;2023-03-08T06:04:49;39.58;;;12.88;;
70576;SDS011;58138;43.138;24.702;2023-03-08T06:07:14;22.67;;;9.75;;
70576;SDS011;58138;43.138;24.702;2023-03-08T06:09:40;20.23;;;9.35;;
70576;SDS011;58138;43.138;24.702;2023-03-08T06:12:06;24.40;;;9.68;;
70576;SDS011;58138;43.138;24.702;2023-03-08T06:14:31;29.92;;;12.30;;
70576;SDS011;58138;43.138;24.702;2023-03-08T06:16:57;17.23;;;8.55;;
70576;SDS011;58138;43.138;24.702;2023-03-08T06:19:23;30.70;;;9.32;;
70576;SDS011;58138;43.138;24.702;2023-03-08T06:21:49;18.38;;;8.80;;
70576;SDS011;58138;43.138;24.702;2023-03-08T06:24:14;18.95;;;8.90;;
70576;SDS011;58138;43.138;24.702;2023-03-08T06:26:40;16.52;;;9.15;;
70576;SDS011;58138;43.138;24.702;2023-03-08T06:29:05;15.05;;;7.70;;
70576;SDS011;58138;43.138;24.702;2023-03-08T06:31:31;22.85;;;8.27;;
70576;SDS011;58138;43.138;24.702;2023-03-08T06:33:56;21.00;;;8.05;;
70576;SDS011;58138;43.138;24.702;2023-03-08T06:36:22;16.75;;;6.38;;
70576;SDS011;58138;43.138;24.702;2023-03-08T06:38:48;8.52;;;4.47;;
70576;SDS011;58138;43.138;24.702;2023-03-08T06:41:14;7.32;;;4.10;;
70576;SDS011;58138;43.138;24.702;2023-03-08T06:43:41;4.55;;;3.20;;
70576;SDS011;58138;43.138;24.702;2023-03-08T06:46:07;7.55;;;3.28;;
70576;SDS011;58138;43.138;24.702;2023-03-08T06:48:34;5.40;;;2.97;;
70576;SDS011;58138;43.138;24.702;2023-03-08T06:51:00;6.15;;;4.07;;
70576;SDS011;58138;43.138;24.702;2023-03-08T06:53:25;4.82;;;2.95;;
70576;SDS011;58138;43.138;24.702;2023-03-08T06:55:51;9.88;;;4.88;;
70576;SDS011;58138;43.138;24.702;2023-03-08T06:58:17;12.25;;;3.97;;
70576;SDS011;58138;43.138;24.702;2023-03-08T07:00:42;3.63;;;2.10;;
70576;SDS011;58138;43.138;24.702;2023-03-08T07:03:09;9.68;;;3.38;;
70576;SDS011;58138;43.138;24.702;2023-03-08T07:05:36;3.40;;;2.20;;
70576;SDS011;58138;43.138;24.702;2023-03-08T07:08:01;6.43;;;2.80;;
70576;SDS011;58138;43.138;24.702;2023-03-08T07:10:27;5.13;;;2.25;;
70576;SDS011;58138;43.138;24.702;2023-03-08T07:12:52;3.08;;;2.20;;
70576;SDS011;58138;43.138;24.702;2023-03-08T07:15:19;6.43;;;2.60;;
70576;SDS011;58138;43.138;24.702;2023-03-08T07:17:46;5.72;;;2.25;;
70576;SDS011;58138;43.138;24.702;2023-03-08T07:20:13;4.82;;;2.10;;
70576;SDS011;58138;43.138;24.702;2023-03-08T07:22:42;12.07;;;2.42;;
70576;SDS011;58138;43.138;24.702;2023-03-08T07:25:15;4.95;;;2.10;;
70576;SDS011;58138;43.138;24.702;2023-03-08T07:27:42;1.40;;;1.30;;
70576;SDS011;58138;43.138;24.702;2023-03-08T07:30:09;5.07;;;2.20;;
70576;SDS011;58138;43.138;24.702;2023-03-08T07:32:36;3.60;;;2.40;;
70576;SDS011;58138;43.138;24.702;2023-03-08T07:35:04;6.15;;;2.47;;
70576;SDS011;58138;43.138;24.702;2023-03-08T07:37:30;5.93;;;2.08;;
70576;SDS011;58138;43.138;24.702;2023-03-08T07:39:55;5.35;;;1.70;;
70576;SDS011;58138;43.138;24.702;2023-03-08T07:42:21;3.33;;;1.38;;
70576;SDS011;58138;43.138;24.702;2023-03-08T07:44:46;4.30;;;2.10;;
70576;SDS011;58138;43.138;24.702;2023-03-08T07:47:12;2.85;;;1.80;;
70576;SDS011;58138;43.138;24.702;2023-03-08T07:49:37;3.20;;;1.92;;
70576;SDS011;58138;43.138;24.702;2023-03-08T07:52:03;1.60;;;1.20;;
70576;SDS011;58138;43.138;24.702;2023-03-08T07:54:29;6.15;;;2.00;;
70576;SDS011;58138;43.138;24.702;2023-03-08T07:56:54;2.60;;;1.80;;
70576;SDS011;58138;43.138;24.702;2023-03-08T07:59:20;3.00;;;1.83;;
70576;SDS011;58138;43.138;24.702;2023-03-08T08:01:46;3.45;;;1.90;;
70576;SDS011;58138;43.138;24.702;2023-03-08T08:04:12;5.15;;;1.70;;
70576;SDS011;58138;43.138;24.702;2023-03-08T08:06:38;3.30;;;1.70;;
70576;SDS011;58138;43.138;24.702;2023-03-08T08:09:04;1.73;;;1.40;;
70576;SDS011;58138;43.138;24.702;2023-03-08T08:11:30;4.40;;;1.58;;
70576;SDS011;58138;43.138;24.702;2023-03-08T08:13:56;4.63;;;2.10;;
70576;SDS011;58138;43.138;24.702;2023-03-08T08:16:21;4.43;;;1.90;;
70576;SDS011;58138;43.138;24.702;2023-03-08T08:18:47;6.25;;;1.95;;
70576;SDS011;58138;43.138;24.702;2023-03-08T08:21:13;2.80;;;1.70;;
70576;SDS011;58138;43.138;24.702;2023-03-08T08:23:40;3.72;;;1.60;;
70576;SDS011;58138;43.138;24.702;2023-03-08T08:26:11;3.75;;;1.70;;
70576;SDS011;58138;43.138;24.702;2023-03-08T08:28:39;5.78;;;1.88;;
70576;SDS011;58138;43.138;24.702;2023-03-08T08:31:06;3.85;;;1.73;;
70576;SDS011;58138;43.138;24.702;2023-03-08T08:33:34;2.30;;;1.48;;
70576;SDS011;58138;43.138;24.702;2023-03-08T08:36:01;2.72;;;1.80;;
70576;SDS011;58138;43.138;24.702;2023-03-08T08:38:28;3.67;;;1.80;;
70576;SDS011;58138;43.138;24.702;2023-03-08T08:40:53;7.68;;;4.72;;
70576;SDS011;58138;43.138;24.702;2023-03-08T08:43:19;3.42;;;1.70;;
70576;SDS011;58138;43.138;24.702;2023-03-08T08:45:45;3.97;;;1.73;;
70576;SDS011;58138;43.138;24.702;2023-03-08T08:48:12;6.72;;;2.17;;
70576;SDS011;58138;43.138;24.702;2023-03-08T08:50:41;2.22;;;1.75;;
70576;SDS011;58138;43.138;24.702;2023-03-08T08:53:07;3.15;;;1.90;;
70576;SDS011;58138;43.138;24.702;2023-03-08T08:55:34;4.00;;;1.92;;
70576;SDS011;58138;43.138;24.702;2023-03-08T08:58:00;2.95;;;1.67;;
70576;SDS011;58138;43.138;24.702;2023-03-08T09:00:26;2.40;;;1.70;;
70576;SDS011;58138;43.138;24.702;2023-03-08T09:02:52;1.92;;;1.50;;
70576;SDS011;58138;43.138;24.702;2023-03-08T09:05:17;4.57;;;1.95;;
70576;SDS011;58138;43.138;24.702;2023-03-08T09:07:43;3.22;;;1.80;;
70576;SDS011;58138;43.138;24.702;2023-03-08T09:10:09;3.75;;;2.00;;
70576;SDS011;58138;43.138;24.702;2023-03-08T09:12:35;2.42;;;1.70;;
70576;SDS011;58138;43.138;24.702;2023-03-08T09:15:00;4.20;;;1.83;;
70576;SDS011;58138;43.138;24.702;2023-03-08T09:17:26;4.35;;;1.90;;
70576;SDS011;58138;43.138;24.702;2023-03-08T09:19:52;2.45;;;1.63;;
70576;SDS011;58138;43.138;24.702;2023-03-08T09:22:17;3.75;;;2.10;;
70576;SDS011;58138;43.138;24.702;2023-03-08T09:24:43;5.32;;;2.55;;
70576;SDS011;58138;43.138;24.702;2023-03-08T09:27:11;4.22;;;2.30;;
70576;SDS011;58138;43.138;24.702;2023-03-08T09:29:37;2.42;;;1.83;;
70576;SDS011;58138;43.138;24.702;2023-03-08T09:32:03;5.03;;;2.30;;
70576;SDS011;58138;43.138;24.702;2023-03-08T09:34:29;4.05;;;1.73;;
70576;SDS011;58138;43.138;24.702;2023-03-08T09:36:55;4.15;;;2.80;;
70576;SDS011;58138;43.138;24.702;2023-03-08T09:39:21;5.65;;;3.30;;
70576;SDS011;58138;43.138;24.702;2023-03-08T09:41:48;4.75;;;3.17;;
70576;SDS011;58138;43.138;24.702;2023-03-08T09:49:52;6.45;;;4.00;;
70576;SDS011;58138;43.138;24.702;2023-03-08T09:55:17;4.95;;;3.10;;
70576;SDS011;58138;43.138;24.702;2023-03-08T09:58:40;9.75;;;3.40;;
70576;SDS011;58138;43.138;24.702;2023-03-08T10:00:53;5.28;;;3.95;;
70576;SDS011;58138;43.138;24.702;2023-03-08T10:03:30;6.15;;;4.70;;
70576;SDS011;58138;43.138;24.702;2023-03-08T10:09:47;5.50;;;3.95;;
70576;SDS011;58138;43.138;24.702;2023-03-08T10:11:53;6.40;;;2.85;;
70576;SDS011;58138;43.138;24.702;2023-03-08T10:14:33;6.88;;;3.25;;
70576;SDS011;58138;43.138;24.702;2023-03-08T10:17:02;7.68;;;3.40;;
70576;SDS011;58138;43.138;24.702;2023-03-08T10:19:37;2.38;;;2.10;;
70576;SDS011;58138;43.138;24.702;2023-03-08T10:22:07;3.47;;;2.15;;
70576;SDS011;58138;43.138;24.702;2023-03-08T10:24:44;5.45;;;2.47;;
70576;SDS011;58138;43.138;24.702;2023-03-08T10:29:50;3.45;;;1.83;;
70576;SDS011;58138;43.138;24.702;2023-03-08T10:32:17;3.00;;;1.60;;
70576;SDS011;58138;43.138;24.702;2023-03-08T10:34:43;5.28;;;1.85;;
70576;SDS011;58138;43.138;24.702;2023-03-08T10:37:09;4.38;;;1.90;;
70576;SDS011;58138;43.138;24.702;2023-03-08T10:39:35;3.72;;;1.55;;
70576;SDS011;58138;43.138;24.702;2023-03-08T10:42:05;6.70;;;3.30;;
70576;SDS011;58138;43.138;24.702;2023-03-08T10:44:50;6.53;;;2.38;;
70576;SDS011;58138;43.138;24.702;2023-03-08T10:47:24;3.30;;;2.10;;
70576;SDS011;58138;43.138;24.702;2023-03-08T10:52:33;2.75;;;1.50;;
70576;SDS011;58138;43.138;24.702;2023-03-08T10:55:00;6.07;;;2.25;;
70576;SDS011;58138;43.138;24.702;2023-03-08T10:57:25;6.22;;;2.50;;
70576;SDS011;58138;43.138;24.702;2023-03-08T10:59:51;5.50;;;2.50;;
70576;SDS011;58138;43.138;24.702;2023-03-08T11:02:17;7.88;;;2.95;;
70576;SDS011;58138;43.138;24.702;2023-03-08T11:04:53;6.97;;;2.10;;
70576;SDS011;58138;43.138;24.702;2023-03-08T11:07:30;6.78;;;2.15;;
70576;SDS011;58138;43.138;24.702;2023-03-08T11:12:36;4.28;;;1.70;;
70576;SDS011;58138;43.138;24.702;2023-03-08T11:15:11;3.47;;;1.73;;
70576;SDS011;58138;43.138;24.702;2023-03-08T11:17:45;6.50;;;2.83;;
70576;SDS011;58138;43.138;24.702;2023-03-08T11:20:28;4.78;;;2.88;;
70576;SDS011;58138;43.138;24.702;2023-03-08T11:23:05;7.00;;;3.92;;
70576;SDS011;58138;43.138;24.702;2023-03-08T11:36:29;8.27;;;4.47;;
70576;SDS011;58138;43.138;24.702;2023-03-08T11:39:27;13.82;;;4.30;;
70576;SDS011;58138;43.138;24.702;2023-03-08T11:44:49;7.55;;;3.78;;
70576;SDS011;58138;43.138;24.702;2023-03-08T11:53:17;7.70;;;4.57;;
70576;SDS011;58138;43.138;24.702;2023-03-08T11:56:09;5.72;;;4.28;;
70576;SDS011;58138;43.138;24.702;2023-03-08T12:01:17;5.25;;;3.78;;
70576;SDS011;58138;43.138;24.702;2023-03-08T12:03:46;7.13;;;3.85;;
70576;SDS011;58138;43.138;24.702;2023-03-08T12:06:17;8.65;;;3.60;;
70576;SDS011;58138;43.138;24.702;2023-03-08T12:08:49;6.57;;;3.97;;
70576;SDS011;58138;43.138;24.702;2023-03-08T12:11:27;5.82;;;4.38;;
70576;SDS011;58138;43.138;24.702;2023-03-08T12:13:56;8.63;;;5.57;;
70576;SDS011;58138;43.138;24.702;2023-03-08T12:19:25;7.05;;;5.32;;
70576;SDS011;58138;43.138;24.702;2023-03-08T12:22:22;5.97;;;4.00;;
70576;SDS011;58138;43.138;24.702;2023-03-08T12:30:13;8.95;;;5.63;;
70576;SDS011;58138;43.138;24.702;2023-03-08T12:32:43;8.27;;;5.13;;
70576;SDS011;58138;43.138;24.702;2023-03-08T12:35:31;7.65;;;5.38;;
70576;SDS011;58138;43.138;24.702;2023-03-08T12:37:59;14.23;;;5.85;;
70576;SDS011;58138;43.138;24.702;2023-03-08T12:40:41;8.10;;;4.78;;
70576;SDS011;58138;43.138;24.702;2023-03-08T12:46:04;7.57;;;4.53;;
70576;SDS011;58138;43.138;24.702;2023-03-08T12:48:32;7.18;;;4.82;;
70576;SDS011;58138;43.138;24.702;2023-03-08T12:51:16;9.00;;;5.38;;
70576;SDS011;58138;43.138;24.702;2023-03-08T13:01:43;6.38;;;3.55;;
70576;SDS011;58138;43.138;24.702;2023-03-08T13:09:21;7.35;;;3.45;;
70576;SDS011;58138;43.138;24.702;2023-03-08T13:14:45;3.83;;;2.65;;
70576;SDS011;58138;43.138;24.702;2023-03-08T13:20:17;4.78;;;2.40;;
70576;SDS011;58138;43.138;24.702;2023-03-08T13:23:06;8.57;;;4.38;;
70576;SDS011;58138;43.138;24.702;2023-03-08T13:28:13;7.20;;;3.20;;
70576;SDS011;58138;43.138;24.702;2023-03-08T13:30:42;3.28;;;2.08;;
70576;SDS011;58138;43.138;24.702;2023-03-08T13:33:14;1.65;;;0.88;;
70576;SDS011;58138;43.138;24.702;2023-03-08T13:35:52;1.80;;;1.00;;
70576;SDS011;58138;43.138;24.702;2023-03-08T13:38:29;2.97;;;1.08;;
70576;SDS011;58138;43.138;24.702;2023-03-08T13:40:57;5.03;;;1.17;;
70576;SDS011;58138;43.138;24.702;2023-03-08T13:43:27;1.15;;;0.90;;
70576;SDS011;58138;43.138;24.702;2023-03-08T13:45:57;1.65;;;0.85;;
70576;SDS011;58138;43.138;24.702;2023-03-08T13:48:25;1.55;;;0.98;;
70576;SDS011;58138;43.138;24.702;2023-03-08T13:50:55;3.33;;;1.25;;
70576;SDS011;58138;43.138;24.702;2023-03-08T13:53:24;1.40;;;1.02;;
70576;SDS011;58138;43.138;24.702;2023-03-08T13:55:56;1.77;;;1.00;;
70576;SDS011;58138;43.138;24.702;2023-03-08T14:00:57;1.95;;;0.80;;
70576;SDS011;58138;43.138;24.702;2023-03-08T14:03:25;2.88;;;1.02;;
70576;SDS011;58138;43.138;24.702;2023-03-08T14:05:52;3.53;;;1.25;;
70576;SDS011;58138;43.138;24.702;2023-03-08T14:08:19;1.38;;;0.80;;
70576;SDS011;58138;43.138;24.702;2023-03-08T14:10:58;1.10;;;0.85;;
70576;SDS011;58138;43.138;24.702;2023-03-08T14:15:59;1.88;;;0.90;;
70576;SDS011;58138;43.138;24.702;2023-03-08T14:18:29;3.90;;;0.98;;
70576;SDS011;58138;43.138;24.702;2023-03-08T14:23:30;20.70;;;1.63;;
70576;SDS011;58138;43.138;24.702;2023-03-08T14:25:58;5.65;;;1.35;;
70576;SDS011;58138;43.138;24.702;2023-03-08T14:28:44;1.58;;;1.00;;
70576;SDS011;58138;43.138;24.702;2023-03-08T14:31:22;8.20;;;4.72;;
70576;SDS011;58138;43.138;24.702;2023-03-08T14:33:56;3.90;;;2.00;;
70576;SDS011;58138;43.138;24.702;2023-03-08T14:36:23;2.55;;;1.35;;
70576;SDS011;58138;43.138;24.702;2023-03-08T14:38:49;1.00;;;0.95;;
70576;SDS011;58138;43.138;24.702;2023-03-08T14:41:14;4.30;;;2.30;;
70576;SDS011;58138;43.138;24.702;2023-03-08T14:43:46;2.35;;;1.63;;
70576;SDS011;58138;43.138;24.702;2023-03-08T14:46:15;2.17;;;1.98;;
70576;SDS011;58138;43.138;24.702;2023-03-08T14:48:42;1.98;;;1.48;;
70576;SDS011;58138;43.138;24.702;2023-03-08T14:54:04;1.17;;;1.00;;
70576;SDS011;58138;43.138;24.702;2023-03-08T14:56:42;2.80;;;1.40;;
70576;SDS011;58138;43.138;24.702;2023-03-08T14:59:09;5.43;;;1.30;;
70576;SDS011;58138;43.138;24.702;2023-03-08T15:01:35;3.65;;;1.90;;
70576;SDS011;58138;43.138;24.702;2023-03-08T15:04:01;4.18;;;2.05;;
70576;SDS011;58138;43.138;24.702;2023-03-08T15:06:32;5.32;;;3.20;;
70576;SDS011;58138;43.138;24.702;2023-03-08T15:08:59;6.60;;;2.65;;
70576;SDS011;58138;43.138;24.702;2023-03-08T15:11:26;3.95;;;2.00;;
70576;SDS011;58138;43.138;24.702;2023-03-08T15:13:51;9.80;;;2.83;;
70576;SDS011;58138;43.138;24.702;2023-03-08T15:16:17;8.95;;;2.33;;
70576;SDS011;58138;43.138;24.702;2023-03-08T15:18:42;1.95;;;1.73;;
70576;SDS011;58138;43.138;24.702;2023-03-08T15:21:12;6.63;;;1.75;;
70576;SDS011;58138;43.138;24.702;2023-03-08T15:23:39;5.68;;;2.85;;
70576;SDS011;58138;43.138;24.702;2023-03-08T15:26:06;4.97;;;3.03;;
70576;SDS011;58138;43.138;24.702;2023-03-08T15:28:32;6.18;;;3.85;;
70576;SDS011;58138;43.138;24.702;2023-03-08T15:30:57;7.00;;;3.80;;
70576;SDS011;58138;43.138;24.702;2023-03-08T15:33:23;21.42;;;10.98;;
70576;SDS011;58138;43.138;24.702;2023-03-08T15:35:48;7.63;;;5.30;;
70576;SDS011;58138;43.138;24.702;2023-03-08T15:38:15;10.30;;;4.75;;
70576;SDS011;58138;43.138;24.702;2023-03-08T15:40:42;7.25;;;4.72;;
70576;SDS011;58138;43.138;24.702;2023-03-08T15:43:08;6.78;;;3.70;;
70576;SDS011;58138;43.138;24.702;2023-03-08T15:45:34;7.60;;;3.13;;
70576;SDS011;58138;43.138;24.702;2023-03-08T15:48:00;8.35;;;4.65;;
70576;SDS011;58138;43.138;24.702;2023-03-08T15:50:28;11.93;;;6.03;;
70576;SDS011;58138;43.138;24.702;2023-03-08T15:52:54;11.98;;;6.57;;
70576;SDS011;58138;43.138;24.702;2023-03-08T15:55:20;7.78;;;4.57;;
70576;SDS011;58138;43.138;24.702;2023-03-08T15:57:47;17.75;;;6.45;;
70576;SDS011;58138;43.138;24.702;2023-03-08T16:00:13;10.70;;;6.55;;